Christopher Myskowski — WDG8768 — position and weather

sailwx.info

Track history (hours):
 
Tides and Currents Weather Stations Pressure Air Temp Water Temp Dewpoint Dewpoint Depression Visibility Wind Speed Wind Dir Waves Ship Positions

Christopher Myskowski

Owner: Marquette Transportation Co. LLC, Paducah, KY. More information available from US FCC via Universal Licensing System and Coast Guard Vessel Documentation Center.

Last reported at 2017-Sep-19 02:02 UTC. Time now 2017-Sep-25 09:56 UTC.
Position N 38°52' W 090°33'.

Length 45 m; draft 2.7 m.

Type: Towing. MMSI: 367580880.

Date/timePositionNaut miles runAvg speedWind from/ knotsBaromVisibWave heightAir tempDewpointWater temp
2017-Sep-19 02:02N 38°52' W 090°33'0 7.4
2017-Sep-19 02:00N 38°52' W 090°33'3 1.9
2017-Sep-19 00:19N 38°55' W 090°31'2 6.0
2017-Sep-19 00:00N 38°56' W 090°29'3 6.9
2017-Sep-18 23:30N 38°58' W 090°25'4 8.2
2017-Sep-18 23:00N 38°56' W 090°20'6 8.3
2017-Sep-18 22:15N 38°54' W 090°13'  
2017-Sep-10 00:26N 41°06' W 090°57'4 6.7
2017-Sep-09 23:55N 41°02' W 090°56'3 6.6
2017-Sep-09 23:30N 40°60' W 090°57'3 6.9
2017-Sep-09 23:00N 40°56' W 090°58'3 5.1
2017-Sep-09 22:31N 40°54' W 091°00'2 3.8
2017-Sep-09 22:01N 40°53' W 091°01'0 0.3
2017-Sep-09 21:30N 40°53' W 091°02'2 4.5
2017-Sep-09 21:01N 40°51' W 091°03'3 6.7
2017-Sep-09 20:30N 40°48' W 091°06'4 2.2
2017-Sep-09 18:33N 40°44' W 091°07'  
Track history (hours):
 
Tides and Currents Weather Stations Pressure Air Temp Water Temp Dewpoint Dewpoint Depression Visibility Wind Speed Wind Dir Waves Ship Positions

Christopher Myskowski

Owner: Marquette Transportation Co. LLC, Paducah, KY. More information available from US FCC via Universal Licensing System and Coast Guard Vessel Documentation Center.

Last reported at 2017-Sep-19 02:02 UTC. Time now 2017-Sep-25 09:56 UTC.
Position N 38°52' W 090°33'.

Length 45 m; draft 2.7 m.

Type: Towing. MMSI: 367580880.

Date/timePositionNaut miles runAvg speedWind from/ knotsBaromVisibWave heightAir tempDewpointWater temp
2017-Sep-19 02:02N 38°52' W 090°33'0 7.4
2017-Sep-19 02:00N 38°52' W 090°33'3 1.9
2017-Sep-19 00:19N 38°55' W 090°31'2 6.0
2017-Sep-19 00:00N 38°56' W 090°29'3 6.9
2017-Sep-18 23:30N 38°58' W 090°25'4 8.2
2017-Sep-18 23:00N 38°56' W 090°20'6 8.3
2017-Sep-18 22:15N 38°54' W 090°13'  
2017-Sep-10 00:26N 41°06' W 090°57'4 6.7
2017-Sep-09 23:55N 41°02' W 090°56'3 6.6
2017-Sep-09 23:30N 40°60' W 090°57'3 6.9
2017-Sep-09 23:00N 40°56' W 090°58'3 5.1
2017-Sep-09 22:31N 40°54' W 091°00'2 3.8
2017-Sep-09 22:01N 40°53' W 091°01'0 0.3
2017-Sep-09 21:30N 40°53' W 091°02'2 4.5
2017-Sep-09 21:01N 40°51' W 091°03'3 6.7
2017-Sep-09 20:30N 40°48' W 091°06'4 2.2
2017-Sep-09 18:33N 40°44' W 091°07'  

Dump ship's entire track history